createdAt,value
2018-11-02T00:00:15.280Z,996.7
2018-11-02T00:03:15.031Z,996.7
2018-11-02T00:06:15.003Z,996.7
2018-11-02T00:09:15.218Z,996.7
2018-11-02T00:12:15.662Z,996.7
2018-11-02T00:15:15.695Z,996.8
2018-11-02T00:18:15.384Z,996.9
2018-11-02T00:21:15.837Z,996.9
2018-11-02T00:24:15.434Z,996.9
2018-11-02T00:27:15.226Z,996.9
2018-11-02T00:30:14.969Z,997.0
2018-11-02T00:33:15.507Z,997.0
2018-11-02T00:36:15.016Z,997.0
2018-11-02T00:39:16.059Z,997.0
2018-11-02T00:42:15.678Z,997.1
2018-11-02T00:45:15.266Z,997.1
2018-11-02T00:48:15.738Z,997.1
2018-11-02T00:51:15.261Z,997.2
2018-11-02T00:54:16.094Z,997.2
2018-11-02T00:57:15.193Z,997.2
2018-11-02T01:00:15.366Z,997.3
2018-11-02T01:03:15.517Z,997.3
2018-11-02T01:06:15.056Z,997.3
2018-11-02T01:09:15.388Z,997.4
2018-11-02T01:12:15.198Z,997.4
2018-11-02T01:15:16.173Z,997.4
2018-11-02T01:18:15.551Z,997.4
2018-11-02T01:21:15.389Z,997.5
2018-11-02T01:24:15.326Z,997.5
2018-11-02T01:27:15.397Z,997.6
2018-11-02T01:30:15.790Z,997.6
2018-11-02T01:33:15.729Z,997.6
2018-11-02T01:36:15.203Z,997.6
2018-11-02T01:39:15.975Z,997.7
2018-11-02T01:42:15.383Z,997.7
2018-11-02T01:45:15.274Z,997.7
2018-11-02T01:48:14.988Z,997.8
2018-11-02T01:51:15.220Z,997.7
2018-11-02T01:54:15.769Z,997.7
2018-11-02T01:57:15.402Z,997.8
2018-11-02T02:00:15.400Z,997.8
2018-11-02T02:03:15.911Z,997.8
2018-11-02T02:06:15.035Z,997.8
2018-11-02T02:09:15.258Z,997.8
2018-11-02T02:12:15.062Z,997.8
2018-11-02T02:15:14.995Z,997.8
2018-11-02T02:18:15.664Z,997.8
2018-11-02T02:21:15.070Z,997.8
2018-11-02T02:24:15.676Z,997.8
2018-11-02T02:27:15.324Z,997.8
2018-11-02T02:30:15.479Z,997.8
2018-11-02T02:33:15.232Z,997.8
2018-11-02T02:36:15.890Z,997.8
2018-11-02T02:39:15.387Z,997.7
2018-11-02T02:42:15.709Z,997.7
2018-11-02T02:45:15.453Z,997.7
2018-11-02T02:48:15.376Z,997.7
2018-11-02T02:51:15.836Z,997.7
2018-11-02T02:54:15.181Z,997.8
2018-11-02T02:57:15.831Z,997.7
2018-11-02T03:00:15.494Z,997.8
2018-11-02T03:03:15.461Z,997.8
2018-11-02T03:06:15.195Z,997.8
2018-11-02T03:09:15.724Z,997.9
2018-11-02T03:12:15.583Z,998.0
2018-11-02T03:15:15.269Z,998.1
2018-11-02T03:18:14.978Z,998.2
2018-11-02T03:21:15.753Z,998.2
2018-11-02T03:24:15.358Z,998.3
2018-11-02T03:27:15.071Z,998.3
2018-11-02T03:30:15.102Z,998.4
2018-11-02T03:33:15.322Z,998.3
2018-11-02T03:36:15.202Z,998.4
2018-11-02T03:39:15.798Z,998.4
2018-11-02T03:42:15.411Z,998.6
2018-11-02T03:45:15.110Z,998.6
2018-11-02T03:48:15.809Z,998.7
2018-11-02T03:51:15.503Z,998.7
2018-11-02T03:54:15.142Z,998.7
2018-11-02T03:57:15.725Z,998.7
2018-11-02T04:00:15.304Z,998.9
2018-11-02T04:03:15.341Z,998.9
2018-11-02T04:06:15.033Z,999.0
2018-11-02T04:09:15.800Z,999.0
2018-11-02T04:12:15.071Z,999.1
2018-11-02T04:15:15.841Z,999.2
2018-11-02T04:18:15.661Z,999.2
2018-11-02T04:21:15.644Z,999.2
2018-11-02T04:24:15.807Z,999.2
2018-11-02T04:27:15.930Z,999.2
2018-11-02T04:30:15.647Z,999.3
2018-11-02T04:33:15.251Z,999.3
2018-11-02T04:36:15.922Z,999.4
2018-11-02T04:39:15.741Z,999.4
2018-11-02T04:42:15.336Z,999.4
2018-11-02T04:45:15.138Z,999.5
2018-11-02T04:48:15.216Z,999.6
2018-11-02T04:51:15.179Z,999.7
2018-11-02T04:54:15.451Z,999.7
2018-11-02T04:57:14.999Z,999.7
2018-11-02T05:00:15.747Z,999.7
2018-11-02T05:03:15.479Z,999.7
2018-11-02T05:06:16.051Z,999.8
2018-11-02T05:09:15.640Z,999.8
2018-11-02T05:12:15.383Z,999.9
2018-11-02T05:15:15.571Z,1000.0
2018-11-02T05:18:15.377Z,1000.0
2018-11-02T05:21:15.175Z,1000.1
2018-11-02T05:24:15.154Z,1000.1
2018-11-02T05:27:15.202Z,1000.1
2018-11-02T05:30:15.869Z,1000.1
2018-11-02T05:33:15.623Z,1000.1
2018-11-02T05:36:15.186Z,1000.1
2018-11-02T05:39:15.936Z,1000.2
2018-11-02T05:42:15.034Z,1000.3
2018-11-02T05:45:15.851Z,1000.3
2018-11-02T05:48:15.460Z,1000.3
2018-11-02T05:51:15.225Z,1000.3
2018-11-02T05:54:16.106Z,1000.4
2018-11-02T05:57:15.821Z,1000.4
2018-11-02T06:00:15.711Z,1000.5
2018-11-02T06:03:15.757Z,1000.6
2018-11-02T06:06:14.974Z,1000.6
2018-11-02T06:09:15.790Z,1000.6
2018-11-02T06:12:15.635Z,1000.6
2018-11-02T06:15:15.384Z,1000.6
2018-11-02T06:18:15.165Z,1000.6
2018-11-02T06:21:15.865Z,1000.6
2018-11-02T06:24:15.091Z,1000.6
2018-11-02T06:27:16.079Z,1000.6
2018-11-02T06:30:15.933Z,1000.6
2018-11-02T06:33:15.721Z,1000.6
2018-11-02T06:36:15.508Z,1000.6
2018-11-02T06:39:15.040Z,1000.6
2018-11-02T06:42:15.809Z,1000.7
2018-11-02T06:45:15.333Z,1000.8
2018-11-02T06:48:15.155Z,1000.9
2018-11-02T06:51:15.507Z,1000.9
2018-11-02T06:54:15.043Z,1001.0
2018-11-02T06:57:15.218Z,1001.1
2018-11-02T07:00:15.140Z,1001.1
2018-11-02T07:03:15.283Z,1001.1
2018-11-02T07:06:15.943Z,1001.1
2018-11-02T07:09:15.683Z,1001.2
2018-11-02T07:12:15.415Z,1001.3
2018-11-02T07:15:15.310Z,1001.3
2018-11-02T07:18:15.874Z,1001.4
2018-11-02T07:21:15.702Z,1001.4
2018-11-02T07:24:15.209Z,1001.5
2018-11-02T07:27:15.861Z,1001.6
2018-11-02T07:30:15.813Z,1001.7
2018-11-02T07:33:15.629Z,1001.7
2018-11-02T07:36:15.489Z,1001.7
2018-11-02T07:39:15.836Z,1001.8
2018-11-02T07:42:15.684Z,1001.8
2018-11-02T07:45:14.931Z,1002.0
2018-11-02T07:48:15.625Z,1002.0
2018-11-02T07:51:15.383Z,1002.0
2018-11-02T07:54:14.991Z,1002.1
2018-11-02T07:57:15.678Z,1002.1
2018-11-02T08:00:15.595Z,1002.2
2018-11-02T08:03:15.320Z,1002.2
2018-11-02T08:06:15.930Z,1002.1
2018-11-02T08:09:15.648Z,1002.1
2018-11-02T08:12:15.187Z,1002.1
2018-11-02T08:15:15.981Z,1002.2
2018-11-02T08:18:16.060Z,1002.1
2018-11-02T08:21:15.742Z,1002.2
2018-11-02T08:24:15.388Z,1002.3
2018-11-02T08:27:15.624Z,1002.3
2018-11-02T08:30:15.336Z,1002.2
2018-11-02T08:33:16.065Z,1002.2
2018-11-02T08:36:15.536Z,1002.2
2018-11-02T08:39:15.057Z,1002.2
2018-11-02T08:42:15.910Z,1002.3
2018-11-02T08:45:15.723Z,1002.4
2018-11-02T08:48:15.579Z,1002.4
2018-11-02T08:51:15.261Z,1002.5
2018-11-02T08:54:15.914Z,1002.5
2018-11-02T08:57:15.299Z,1002.5
2018-11-02T09:00:16.118Z,1002.5
2018-11-02T09:03:15.820Z,1002.5
2018-11-02T09:06:15.351Z,1002.5
2018-11-02T09:09:15.948Z,1002.6
2018-11-02T09:12:16.218Z,1002.6
2018-11-02T09:15:15.170Z,1002.6
2018-11-02T09:18:15.281Z,1002.7
2018-11-02T09:21:15.370Z,1002.7
2018-11-02T09:24:20.802Z,1002.7
2018-11-02T09:27:15.713Z,1002.8
2018-11-02T09:30:15.449Z,1002.8
2018-11-02T09:33:15.275Z,1002.8
2018-11-02T09:36:15.999Z,1002.8
2018-11-02T09:39:15.382Z,1002.8
2018-11-02T09:42:15.270Z,1002.8
2018-11-02T09:45:14.996Z,1002.8
2018-11-02T09:48:15.099Z,1002.9
2018-11-02T09:51:15.786Z,1002.9
2018-11-02T09:54:15.106Z,1003.0
2018-11-02T09:57:15.434Z,1002.9
2018-11-02T10:00:15.848Z,1002.9
2018-11-02T10:03:15.185Z,1002.9
2018-11-02T10:06:15.491Z,1003.0
2018-11-02T10:09:15.202Z,1003.0
2018-11-02T10:12:15.612Z,1003.1
2018-11-02T10:15:15.149Z,1003.1
2018-11-02T10:18:15.749Z,1003.1
2018-11-02T10:21:15.265Z,1003.1
2018-11-02T10:24:15.706Z,1003.0
2018-11-02T10:27:15.331Z,1003.0
2018-11-02T10:30:15.677Z,1003.0
2018-11-02T10:33:15.652Z,1003.0
2018-11-02T10:36:15.028Z,1003.0
2018-11-02T10:39:15.319Z,1003.0
2018-11-02T10:42:15.000Z,1003.0
2018-11-02T10:45:15.321Z,1003.1
2018-11-02T10:48:15.423Z,1003.2
2018-11-02T10:51:15.064Z,1003.1
2018-11-02T10:54:15.788Z,1003.2
2018-11-02T10:57:15.536Z,1003.3
2018-11-02T11:00:15.249Z,1003.3
2018-11-02T11:03:14.979Z,1003.2
2018-11-02T11:06:15.300Z,1003.2
2018-11-02T11:09:15.474Z,1003.2
2018-11-02T11:12:15.510Z,1003.2
2018-11-02T11:15:15.663Z,1003.1
2018-11-02T11:18:15.484Z,1003.0
2018-11-02T11:21:15.508Z,1003.0
2018-11-02T11:24:15.880Z,1003.0
2018-11-02T11:27:15.649Z,1003.0
2018-11-02T11:30:15.665Z,1002.9
2018-11-02T11:33:15.552Z,1003.0
2018-11-02T11:36:15.729Z,1003.0
2018-11-02T11:39:15.929Z,1003.1
2018-11-02T11:42:15.465Z,1003.1
2018-11-02T11:45:15.957Z,1003.1
2018-11-02T11:48:16.040Z,1003.1
2018-11-02T11:51:15.809Z,1003.2
2018-11-02T11:54:15.819Z,1003.1
2018-11-02T11:57:15.227Z,1003.1
2018-11-02T12:00:15.404Z,1003.1
2018-11-02T12:03:15.509Z,1003.1
2018-11-02T12:06:16.028Z,1003.0
2018-11-02T12:09:15.252Z,1003.1
2018-11-02T12:12:15.167Z,1003.2
2018-11-02T12:15:15.382Z,1003.2
2018-11-02T12:18:15.402Z,1003.2
2018-11-02T12:21:15.295Z,1003.2
2018-11-02T12:24:15.109Z,1003.2
2018-11-02T12:27:14.969Z,1003.2
2018-11-02T12:30:15.915Z,1003.2
2018-11-02T12:33:16.020Z,1003.2
2018-11-02T12:36:15.141Z,1003.3
2018-11-02T12:39:15.618Z,1003.3
2018-11-02T12:42:15.293Z,1003.3
2018-11-02T12:45:14.972Z,1003.3
2018-11-02T12:48:15.192Z,1003.2
2018-11-02T12:51:15.936Z,1003.2
2018-11-02T12:54:15.449Z,1003.2
2018-11-02T12:57:15.803Z,1003.1
2018-11-02T13:00:15.778Z,1003.1
2018-11-02T13:03:15.885Z,1003.1
2018-11-02T13:06:15.436Z,1003.1
2018-11-02T13:09:15.123Z,1003.1
2018-11-02T13:12:15.497Z,1003.1
2018-11-02T13:15:15.213Z,1003.2
2018-11-02T13:18:15.473Z,1003.2
2018-11-02T13:21:15.415Z,1003.4
2018-11-02T13:24:15.193Z,1003.5
2018-11-02T13:27:15.278Z,1003.7
2018-11-02T13:30:15.797Z,1003.6
2018-11-02T13:33:15.473Z,1003.6
2018-11-02T13:36:16.021Z,1003.6
2018-11-02T13:39:15.516Z,1003.7
2018-11-02T13:42:15.499Z,1003.7
2018-11-02T13:45:15.224Z,1003.8
2018-11-02T13:48:15.841Z,1003.7
2018-11-02T13:51:15.878Z,1003.8
2018-11-02T13:54:15.043Z,1003.8
2018-11-02T13:57:15.178Z,1003.8
2018-11-02T14:00:15.960Z,1003.8
2018-11-02T14:03:15.260Z,1003.8
2018-11-02T14:06:15.054Z,1003.8
2018-11-02T14:09:15.083Z,1003.9
2018-11-02T14:12:15.957Z,1003.9
2018-11-02T14:15:15.125Z,1003.9
2018-11-02T14:18:15.295Z,1003.8
2018-11-02T14:21:15.830Z,1003.9
2018-11-02T14:24:15.669Z,1003.9
2018-11-02T14:27:15.665Z,1003.9
2018-11-02T14:30:15.569Z,1003.9
2018-11-02T14:33:15.816Z,1004.0
2018-11-02T14:36:20.557Z,1004.0
2018-11-02T14:39:15.563Z,1004.0
2018-11-02T14:42:15.122Z,1003.9
2018-11-02T14:45:15.123Z,1003.9
2018-11-02T14:48:15.219Z,1003.9
2018-11-02T14:51:15.497Z,1003.9
2018-11-02T14:54:15.733Z,1003.9
2018-11-02T14:57:15.787Z,1004.0
2018-11-02T15:00:15.808Z,1004.1
2018-11-02T15:03:15.452Z,1004.1
2018-11-02T15:06:15.488Z,1004.2
2018-11-02T15:09:15.047Z,1004.2
2018-11-02T15:12:15.038Z,1004.3
2018-11-02T15:15:16.025Z,1004.3
2018-11-02T15:18:15.383Z,1004.3
2018-11-02T15:21:15.430Z,1004.3
2018-11-02T15:24:15.364Z,1004.3
2018-11-02T15:27:15.017Z,1004.4
2018-11-02T15:30:15.855Z,1004.4
2018-11-02T15:33:15.518Z,1004.4
2018-11-02T15:36:15.336Z,1004.4
2018-11-02T15:39:15.053Z,1004.5
2018-11-02T15:42:14.966Z,1004.5
2018-11-02T15:45:15.919Z,1004.6
2018-11-02T15:48:15.622Z,1004.8
2018-11-02T15:51:15.088Z,1004.8
2018-11-02T15:54:15.174Z,1004.9
2018-11-02T15:57:15.817Z,1004.9
2018-11-02T16:00:15.225Z,1005.0
2018-11-02T16:03:15.603Z,1005.1
2018-11-02T16:06:15.551Z,1005.0
2018-11-02T16:09:15.660Z,1005.1
2018-11-02T16:12:15.389Z,1005.2
2018-11-02T16:15:15.128Z,1005.2
2018-11-02T16:18:15.097Z,1005.3
2018-11-02T16:21:14.964Z,1005.3
2018-11-02T16:24:16.053Z,1005.4
2018-11-02T16:27:14.909Z,1005.5
2018-11-02T16:30:16.071Z,1005.5
2018-11-02T16:33:15.945Z,1005.7
2018-11-02T16:36:15.740Z,1005.8
2018-11-02T16:39:15.457Z,1005.8
2018-11-02T16:42:15.489Z,1005.8
2018-11-02T16:45:15.258Z,1005.9
2018-11-02T16:48:15.210Z,1005.9
2018-11-02T16:51:15.285Z,1006.0
2018-11-02T16:54:15.621Z,1006.0
2018-11-02T16:57:14.927Z,1006.1
2018-11-02T17:00:15.414Z,1006.2
2018-11-02T17:03:15.345Z,1006.2
2018-11-02T17:06:15.441Z,1006.2
2018-11-02T17:09:15.841Z,1006.3
2018-11-02T17:12:15.665Z,1006.3
2018-11-02T17:15:15.431Z,1006.5
2018-11-02T17:18:15.536Z,1006.5
2018-11-02T17:21:15.737Z,1006.6
2018-11-02T17:24:15.553Z,1006.7
2018-11-02T17:27:15.318Z,1006.8
2018-11-02T17:30:15.353Z,1006.8
2018-11-02T17:33:15.082Z,1006.9
2018-11-02T17:36:15.231Z,1006.9
2018-11-02T17:39:15.069Z,1007.0
2018-11-02T17:42:20.290Z,1007.0
2018-11-02T17:45:15.352Z,1007.1
2018-11-02T17:48:15.119Z,1007.2
2018-11-02T17:51:15.041Z,1007.2
2018-11-02T17:54:15.165Z,1007.2
2018-11-02T17:57:15.175Z,1007.2
2018-11-02T18:00:15.243Z,1007.2
2018-11-02T18:03:15.145Z,1007.2
2018-11-02T18:06:15.331Z,1007.2
2018-11-02T18:09:15.322Z,1007.2
2018-11-02T18:12:15.284Z,1007.2
2018-11-02T18:15:15.147Z,1007.2
2018-11-02T18:18:15.270Z,1007.2
2018-11-02T18:21:15.312Z,1007.2
2018-11-02T18:24:15.057Z,1007.1
2018-11-02T18:27:15.928Z,1007.2
2018-11-02T18:30:15.976Z,1007.3
2018-11-02T18:33:15.686Z,1007.3
2018-11-02T18:36:15.844Z,1007.3
2018-11-02T18:39:15.784Z,1007.4
2018-11-02T18:42:15.729Z,1007.5
2018-11-02T18:45:15.769Z,1007.5
2018-11-02T18:48:15.839Z,1007.5
2018-11-02T18:51:15.101Z,1007.5
2018-11-02T18:54:15.763Z,1007.6
2018-11-02T18:57:15.384Z,1007.5
2018-11-02T19:00:15.126Z,1007.5
2018-11-02T19:03:15.283Z,1007.5
2018-11-02T19:06:15.784Z,1007.6
2018-11-02T19:09:15.202Z,1007.5
2018-11-02T19:12:15.208Z,1007.5
2018-11-02T19:15:15.373Z,1007.5
2018-11-02T19:18:15.695Z,1007.5
2018-11-02T19:21:15.513Z,1007.5
2018-11-02T19:24:15.742Z,1007.6
2018-11-02T19:27:15.424Z,1007.7
2018-11-02T19:30:15.097Z,1007.7
2018-11-02T19:33:15.115Z,1007.7
2018-11-02T19:36:15.170Z,1007.8
2018-11-02T19:39:15.243Z,1007.8
2018-11-02T19:42:15.219Z,1007.9
2018-11-02T19:45:15.522Z,1007.9
2018-11-02T19:48:15.919Z,1008.0
2018-11-02T19:51:15.961Z,1008.1
2018-11-02T19:54:15.696Z,1008.1
2018-11-02T19:57:15.640Z,1008.2
2018-11-02T20:00:15.549Z,1008.3
2018-11-02T20:03:15.408Z,1008.3
2018-11-02T20:06:15.227Z,1008.3
2018-11-02T20:09:15.346Z,1008.4
2018-11-02T20:12:15.137Z,1008.4
2018-11-02T20:15:15.290Z,1008.4
2018-11-02T20:18:15.706Z,1008.5
2018-11-02T20:21:15.438Z,1008.5
2018-11-02T20:24:15.485Z,1008.5
2018-11-02T20:27:15.750Z,1008.5
2018-11-02T20:30:15.232Z,1008.5
2018-11-02T20:33:15.419Z,1008.6
2018-11-02T20:36:15.299Z,1008.6
2018-11-02T20:39:15.350Z,1008.7
2018-11-02T20:42:15.701Z,1008.6
2018-11-02T20:45:15.562Z,1008.7
2018-11-02T20:48:15.875Z,1008.7
2018-11-02T20:51:15.185Z,1008.8
2018-11-02T20:54:15.101Z,1008.7
2018-11-02T20:57:15.139Z,1008.7
2018-11-02T21:00:15.082Z,1008.8
2018-11-02T21:03:15.272Z,1008.8
2018-11-02T21:06:15.467Z,1008.8
2018-11-02T21:09:15.983Z,1008.8
2018-11-02T21:12:15.502Z,1008.8
2018-11-02T21:15:15.367Z,1008.8
2018-11-02T21:18:15.194Z,1008.8
2018-11-02T21:21:15.446Z,1008.8
2018-11-02T21:24:15.908Z,1008.8
2018-11-02T21:27:15.804Z,1008.9
2018-11-02T21:30:15.956Z,1008.9
2018-11-02T21:33:15.465Z,1008.8
2018-11-02T21:36:15.911Z,1008.9
2018-11-02T21:39:15.866Z,1008.9
2018-11-02T21:42:15.652Z,1009.0
2018-11-02T21:45:15.514Z,1009.0
2018-11-02T21:48:15.973Z,1009.0
2018-11-02T21:51:16.278Z,1008.9
2018-11-02T21:54:15.637Z,1009.0
2018-11-02T21:57:15.460Z,1008.9
2018-11-02T22:00:16.251Z,1008.9
2018-11-02T22:03:15.669Z,1008.8
2018-11-02T22:06:16.218Z,1008.8
2018-11-02T22:09:15.865Z,1008.7
2018-11-02T22:12:15.776Z,1008.7
2018-11-02T22:15:15.564Z,1008.7
2018-11-02T22:18:16.205Z,1008.7
2018-11-02T22:21:15.773Z,1008.7
2018-11-02T22:24:16.143Z,1008.7
2018-11-02T22:27:16.380Z,1008.8
2018-11-02T22:30:15.938Z,1008.8
2018-11-02T22:33:16.321Z,1008.9
2018-11-02T22:36:15.444Z,1008.9
2018-11-02T22:39:16.208Z,1008.9
2018-11-02T22:42:15.378Z,1008.9
2018-11-02T22:45:15.598Z,1009.0
2018-11-02T22:48:16.111Z,1009.0
2018-11-02T22:51:16.148Z,1009.0
2018-11-02T22:54:15.802Z,1008.9
2018-11-02T22:57:15.826Z,1008.9
2018-11-02T23:00:15.237Z,1008.9
2018-11-02T23:03:15.397Z,1009.0
2018-11-02T23:06:15.476Z,1009.1
2018-11-02T23:09:15.510Z,1009.1
2018-11-02T23:12:15.958Z,1009.1
2018-11-02T23:15:15.468Z,1009.1
2018-11-02T23:18:15.436Z,1009.1
2018-11-02T23:21:15.451Z,1009.1
2018-11-02T23:24:15.412Z,1009.1
2018-11-02T23:27:15.273Z,1009.1
2018-11-02T23:30:15.404Z,1009.1
2018-11-02T23:33:15.437Z,1009.1
2018-11-02T23:36:15.307Z,1009.2
2018-11-02T23:39:15.462Z,1009.1
2018-11-02T23:42:15.476Z,1009.1
2018-11-02T23:45:15.668Z,1009.0
2018-11-02T23:48:15.512Z,1008.9
2018-11-02T23:51:15.307Z,1009.0
2018-11-02T23:54:15.967Z,1009.0
2018-11-02T23:57:15.563Z,1008.9
